createdAt,value
2022-09-03T00:03:49.371Z,80.1743
2022-09-03T00:08:51.020Z,84.61855
2022-09-03T00:13:52.720Z,86.15925
2022-09-03T00:18:54.338Z,80.52995
2022-09-03T00:23:55.976Z,77.4486
2022-09-03T00:28:58.820Z,69.92295
2022-09-03T00:34:01.701Z,73.7746
2022-09-03T00:39:03.393Z,64.2343
2022-09-03T00:44:05.128Z,56.41245
2022-09-03T00:49:07.082Z,49.71655
2022-09-03T00:54:08.864Z,45.39085
2022-09-03T00:59:10.616Z,41.65765
2022-09-03T01:04:12.355Z,37.92445
2022-09-03T01:09:14.040Z,33.8357
2022-09-03T01:14:15.824Z,30.33955
2022-09-03T01:19:17.421Z,27.02115
2022-09-03T01:24:19.134Z,25.89525
2022-09-03T01:29:20.866Z,25.4212
2022-09-03T01:34:22.436Z,23.2287
2022-09-03T01:39:24.069Z,21.0955
2022-09-03T01:44:25.733Z,17.95485
2022-09-03T01:49:27.384Z,16.2364
2022-09-03T01:54:28.950Z,14.2809
2022-09-03T01:59:30.546Z,12.0884
2022-09-03T02:04:32.144Z,9.4811
2022-09-03T02:09:33.737Z,6.93305
2022-09-03T02:14:35.342Z,4.74055
2022-09-03T02:19:36.969Z,2.6073
2022-09-03T02:24:38.700Z,1.6592
2022-09-03T02:29:40.291Z,0.9481
2022-09-03T02:34:41.966Z,0.8296
2022-09-03T02:39:43.642Z,0.47405
2022-09-03T02:44:45.303Z,0.4148
2022-09-03T02:49:46.920Z,0
2022-09-03T02:54:48.555Z,0
2022-09-03T02:59:50.147Z,0
2022-09-03T03:04:51.926Z,0
2022-09-03T03:09:53.503Z,0
2022-09-03T03:14:55.096Z,0
2022-09-03T03:19:56.712Z,0
2022-09-03T03:24:58.332Z,0
2022-09-03T03:29:59.912Z,0
2022-09-03T03:35:01.565Z,0
2022-09-03T03:40:03.233Z,0
2022-09-03T03:45:04.909Z,0
2022-09-03T03:50:06.525Z,0
2022-09-03T03:55:08.175Z,0
2022-09-03T04:00:09.787Z,0
2022-09-03T04:05:11.554Z,0
2022-09-03T04:10:13.264Z,0
2022-09-03T04:15:14.896Z,0
2022-09-03T04:20:16.686Z,0
2022-09-03T04:25:18.349Z,0
2022-09-03T04:30:19.945Z,0
2022-09-03T04:35:22.684Z,0
2022-09-03T04:40:24.388Z,0
2022-09-03T04:45:25.990Z,0
2022-09-03T04:50:27.632Z,0
2022-09-03T04:55:29.240Z,0
2022-09-03T05:00:30.901Z,0
2022-09-03T05:05:32.547Z,0
2022-09-03T05:10:34.168Z,0
2022-09-03T05:15:35.750Z,0
2022-09-03T05:20:37.445Z,0
2022-09-03T05:25:39.067Z,0
2022-09-03T05:30:40.658Z,0
2022-09-03T05:35:42.429Z,0
2022-09-03T05:40:44.050Z,0
2022-09-03T05:45:45.691Z,0
2022-09-03T05:50:47.313Z,0
2022-09-03T05:55:48.926Z,0
2022-09-03T06:00:50.504Z,0
2022-09-03T06:05:52.120Z,0
2022-09-03T06:10:53.735Z,0
2022-09-03T06:15:55.412Z,0
2022-09-03T06:20:57.039Z,0
2022-09-03T06:26:01.971Z,0
2022-09-03T06:31:07.030Z,0
2022-09-03T06:36:09.127Z,0
2022-09-03T06:41:10.985Z,0
2022-09-03T06:46:12.661Z,0
2022-09-03T06:51:14.494Z,0
2022-09-03T06:56:16.188Z,0
2022-09-03T07:01:17.957Z,0
2022-09-03T07:06:19.913Z,0
2022-09-03T07:11:21.575Z,0
2022-09-03T07:16:23.182Z,0
2022-09-03T07:21:24.878Z,0
2022-09-03T07:26:26.486Z,0
2022-09-03T07:31:28.257Z,0
2022-09-03T07:36:35.256Z,0
2022-09-03T07:41:37.402Z,0
2022-09-03T07:46:39.061Z,0
2022-09-03T07:51:40.717Z,0
2022-09-03T07:56:42.322Z,0
2022-09-03T08:01:43.912Z,0
2022-09-03T08:06:45.488Z,0
2022-09-03T08:11:47.066Z,0
2022-09-03T08:16:48.654Z,0
2022-09-03T08:21:50.239Z,0
2022-09-03T08:26:52.544Z,0
2022-09-03T08:31:54.652Z,0
2022-09-03T08:36:56.300Z,0
2022-09-03T08:41:58.374Z,0
2022-09-03T08:46:59.985Z,0
2022-09-03T08:52:01.558Z,0
2022-09-03T08:57:03.172Z,0
2022-09-03T09:02:04.935Z,0
2022-09-03T09:07:06.544Z,0
2022-09-03T09:12:08.123Z,0
2022-09-03T09:17:09.736Z,0
2022-09-03T09:22:11.503Z,0
2022-09-03T09:27:16.012Z,0
2022-09-03T09:32:17.807Z,0
2022-09-03T09:37:19.985Z,0
2022-09-03T09:42:21.586Z,0
2022-09-03T09:47:23.166Z,0
2022-09-03T09:52:24.780Z,0
2022-09-03T09:57:26.424Z,0
2022-09-03T10:02:28.036Z,0
2022-09-03T10:07:29.674Z,0
2022-09-03T10:12:31.255Z,0
2022-09-03T10:17:36.980Z,0
2022-09-03T10:22:39.105Z,0
2022-09-03T10:27:59.824Z,0
2022-09-03T10:33:01.677Z,0
2022-09-03T10:38:03.503Z,0
2022-09-03T10:43:05.126Z,0
2022-09-03T10:48:06.695Z,0
2022-09-03T10:53:08.305Z,0
2022-09-03T10:58:09.914Z,0
2022-09-03T11:03:11.570Z,0
2022-09-03T11:08:13.161Z,0
2022-09-03T11:13:14.802Z,0
2022-09-03T11:18:16.555Z,0
2022-09-03T11:23:18.181Z,0
2022-09-03T11:28:22.186Z,0
2022-09-03T11:33:23.830Z,0
2022-09-03T11:38:25.551Z,0
2022-09-03T11:43:27.224Z,0
2022-09-03T11:48:29.728Z,0
2022-09-03T11:53:31.321Z,0
2022-09-03T11:58:33.048Z,0
2022-09-03T12:03:34.620Z,0
2022-09-03T12:08:36.238Z,0
2022-09-03T12:13:37.872Z,0
2022-09-03T12:18:39.537Z,0
2022-09-03T12:23:41.146Z,0
2022-09-03T12:28:43.957Z,0
2022-09-03T12:33:46.355Z,0
2022-09-03T12:39:10.412Z,0
2022-09-03T12:44:13.612Z,0
2022-09-03T12:49:30.949Z,0
2022-09-03T12:54:32.829Z,1.16185
2022-09-03T12:59:34.425Z,0.4148
2022-09-03T13:04:36.058Z,1.3463
2022-09-03T13:09:37.899Z,1.6592
2022-09-03T13:14:39.603Z,3.0813
2022-09-03T13:19:41.196Z,3.2591
2022-09-03T13:24:42.842Z,4.7998
2022-09-03T13:29:44.612Z,6.696
2022-09-03T13:34:46.184Z,7.8219
2022-09-03T13:39:47.823Z,8.4737
2022-09-03T13:44:49.501Z,8.29595
2022-09-03T13:49:51.131Z,8.59225
2022-09-03T13:54:53.896Z,9.00705
2022-09-03T13:59:55.527Z,9.3626
2022-09-03T14:04:57.220Z,10.36995
2022-09-03T14:09:58.807Z,13.03655
2022-09-03T14:15:00.492Z,13.27355
2022-09-03T14:20:02.156Z,16.76975
2022-09-03T14:25:03.793Z,23.16945
2022-09-03T14:30:05.410Z,24.4139
2022-09-03T14:35:07.075Z,26.78415
2022-09-03T14:40:08.755Z,21.33255
2022-09-03T14:45:15.432Z,26.31015
2022-09-03T14:50:16.993Z,45.6277
2022-09-03T14:55:18.629Z,58.42705
2022-09-03T15:00:20.421Z,77.62605
2022-09-03T15:05:22.150Z,115.0166
2022-09-03T15:10:23.852Z,124.1421
2022-09-03T15:15:25.446Z,115.8463
2022-09-03T15:20:27.403Z,119.34245
2022-09-03T15:25:28.989Z,113.654
2022-09-03T15:30:30.703Z,148.2006
2022-09-03T15:35:32.284Z,66.2491
2022-09-03T15:40:34.099Z,68.9156
2022-09-03T15:45:35.762Z,53.74605
2022-09-03T15:50:37.425Z,86.69255
2022-09-03T15:55:39.037Z,50.54625
2022-09-03T16:00:40.659Z,117.68365
2022-09-03T16:05:42.292Z,131.96445
2022-09-03T16:10:43.868Z,97.59605
2022-09-03T16:15:45.565Z,77.56725
2022-09-03T16:20:47.168Z,156.08195
2022-09-03T16:25:48.747Z,184.4064
2022-09-03T16:30:50.972Z,208.109
2022-09-03T16:35:52.535Z,214.80505
2022-09-03T16:40:54.136Z,193.7098
2022-09-03T16:45:55.830Z,201.29465
2022-09-03T16:51:02.404Z,140.91235
2022-09-03T16:56:04.038Z,105.12155
2022-09-03T17:01:06.668Z,85.0339
2022-09-03T17:06:08.599Z,85.92265
2022-09-03T17:11:10.204Z,68.4419
2022-09-03T17:16:12.446Z,139.0166
2022-09-03T17:21:26.817Z,179.01455
2022-09-03T17:26:28.431Z,201.29525
2022-09-03T17:31:30.122Z,212.3762
2022-09-03T17:36:31.944Z,222.86465
2022-09-03T17:41:34.366Z,226.89425
2022-09-03T17:46:36.328Z,233.4718
2022-09-03T17:51:38.010Z,243.0714
2022-09-03T17:56:39.615Z,230.44975
2022-09-03T18:01:41.319Z,224.1686
2022-09-03T18:06:42.972Z,215.8134
2022-09-03T18:11:44.563Z,206.3323
2022-09-03T18:16:46.321Z,209.0581
2022-09-03T18:21:47.886Z,202.1844
2022-09-03T18:26:49.703Z,190.39245
2022-09-03T18:31:51.271Z,192.22915
2022-09-03T18:36:52.987Z,195.3698
2022-09-03T18:41:54.569Z,197.7401
2022-09-03T18:52:27.991Z,191.63675
2022-09-03T18:57:29.600Z,200.8216
2022-09-03T19:02:31.354Z,170.4822
2022-09-03T19:07:33.014Z,171.78575
2022-09-03T19:12:34.595Z,190.8072
2022-09-03T19:17:36.214Z,227.25005
2022-09-03T19:22:37.849Z,213.3839
2022-09-03T19:27:55.308Z,197.3252
2022-09-03T19:33:00.393Z,200.8213
2022-09-03T19:38:02.000Z,192.0513
2022-09-03T19:43:03.553Z,161.7712
2022-09-03T19:48:05.219Z,185.94765
2022-09-03T19:53:06.854Z,190.62865
2022-09-03T19:58:20.611Z,115.07685
2022-09-03T20:03:28.004Z,105.1217
2022-09-03T20:08:29.591Z,129.0613
2022-09-03T20:13:31.185Z,94.87025
2022-09-03T20:18:32.757Z,80.1746
2022-09-03T20:23:34.344Z,71.28605
2022-09-03T20:28:36.078Z,73.18225
2022-09-03T20:33:37.666Z,80.8264
2022-09-03T20:38:43.679Z,87.1669
2022-09-03T20:43:45.268Z,102.75145
2022-09-03T20:48:46.883Z,121.4766
2022-09-03T20:53:48.501Z,104.23285
2022-09-03T20:58:50.119Z,94.574
2022-09-03T21:03:51.729Z,78.57465
2022-09-03T21:08:53.550Z,74.7822
2022-09-03T21:13:55.190Z,77.6858
2022-09-03T21:18:56.780Z,76.4414
2022-09-03T21:23:58.380Z,70.57495
2022-09-03T21:28:59.956Z,77.2117
2022-09-03T21:34:01.582Z,90.5445
2022-09-03T21:39:03.194Z,103.6995
2022-09-03T21:44:04.802Z,102.6329
2022-09-03T21:49:06.389Z,113.41765
2022-09-03T21:54:08.137Z,115.5509
2022-09-03T21:59:09.743Z,73.4786
2022-09-03T22:04:11.490Z,73.12305
2022-09-03T22:09:13.080Z,83.25595
2022-09-03T22:14:14.730Z,117.3285
2022-09-03T22:19:16.335Z,108.49935
2022-09-03T22:24:17.944Z,100.55895
2022-09-03T22:29:19.560Z,88.9447
2022-09-03T22:34:21.149Z,111.75845
2022-09-03T22:39:22.842Z,191.3402
